Time;durP1;ratioP1;P1;durP2;ratioP2;P2;SDS_P1;SDS_P2;PMS_P1;PMS_P2;Temp;Humidity;BMP_temperature;BMP_pressure;BME280_temperature;BME280_humidity;BME280_pressure;Samples;Min_cycle;Max_cycle;Signal;HPM_P1;HPM_P2
2021/07/08 00:02:16;;;;;;;3.97;2.40;;;21.00;99.90;;;;;;5056074;28;20028;-91
2021/07/08 00:04:43;;;;;;;2.92;2.53;;;21.00;99.90;;;;;;5056174;28;20472;-90
2021/07/08 00:07:09;;;;;;;2.67;2.47;;;20.90;99.90;;;;;;5055934;28;20024;-87
2021/07/08 00:09:35;;;;;;;2.35;2.15;;;20.80;99.90;;;;;;5055974;28;20035;-88
2021/07/08 00:12:02;;;;;;;3.80;2.60;;;20.80;99.90;;;;;;5055842;28;20017;-88
2021/07/08 00:14:27;;;;;;;4.45;2.60;;;20.70;99.90;;;;;;5055697;28;20048;-90
2021/07/08 00:16:53;;;;;;;4.57;3.22;;;20.70;99.90;;;;;;5055846;28;20111;-88
2021/07/08 00:19:19;;;;;;;4.57;2.70;;;20.70;99.90;;;;;;5055830;28;20385;-87
2021/07/08 00:21:44;;;;;;;3.63;2.88;;;20.60;99.90;;;;;;5055673;28;20142;-89
2021/07/08 00:24:10;;;;;;;4.22;2.83;;;20.60;99.90;;;;;;5055621;28;20024;-88
2021/07/08 00:26:36;;;;;;;4.07;2.50;;;20.60;99.90;;;;;;5055783;28;20468;-90
2021/07/08 00:29:02;;;;;;;2.70;2.50;;;20.60;99.90;;;;;;5055672;28;20025;-89
2021/07/08 00:31:28;;;;;;;3.38;2.88;;;20.60;99.90;;;;;;5056735;28;20029;-87
2021/07/08 00:33:53;;;;;;;4.40;2.95;;;20.60;99.90;;;;;;5059298;28;20506;-88
2021/07/08 00:36:19;;;;;;;3.70;2.80;;;20.60;99.90;;;;;;5059312;28;20364;-87
2021/07/08 00:38:45;;;;;;;5.13;3.28;;;20.60;99.90;;;;;;5059086;28;20028;-88
2021/07/08 00:41:10;;;;;;;4.05;3.00;;;20.60;99.90;;;;;;5059436;28;20040;-88
2021/07/08 00:43:36;;;;;;;3.35;3.03;;;20.50;99.90;;;;;;5059092;28;20545;-89
2021/07/08 00:46:04;;;;;;;4.25;3.10;;;20.40;99.90;;;;;;5059184;28;20025;-89
2021/07/08 00:48:30;;;;;;;5.60;3.53;;;20.40;99.90;;;;;;5059361;28;20067;-89
2021/07/08 00:50:56;;;;;;;5.50;3.13;;;20.40;99.90;;;;;;5059017;28;20024;-90
2021/07/08 00:53:22;;;;;;;3.47;3.10;;;20.40;99.90;;;;;;5059094;28;20024;-89
2021/07/08 00:56:01;;;;;;;3.78;3.00;;;20.40;99.90;;;;;;5059561;28;20056;-91
2021/07/08 00:58:26;;;;;;;4.05;2.97;;;20.40;99.90;;;;;;5059608;28;20078;-90
2021/07/08 01:00:53;;;;;;;4.60;2.97;;;20.40;99.90;;;;;;5059999;28;20024;-90
2021/07/08 01:03:19;;;;;;;4.80;3.40;;;20.40;99.90;;;;;;5060502;28;20039;-90
2021/07/08 01:05:51;;;;;;;3.85;3.38;;;20.30;99.90;;;;;;5059589;28;20433;-89
2021/07/08 01:08:18;;;;;;;4.90;3.35;;;20.30;99.90;;;;;;5059837;28;20024;-89
2021/07/08 01:10:45;;;;;;;4.15;2.83;;;20.30;99.90;;;;;;5058821;28;20028;-92
2021/07/08 01:13:13;;;;;;;4.03;2.90;;;20.20;99.90;;;;;;5058629;28;20162;-88
2021/07/08 01:15:39;;;;;;;3.15;2.85;;;20.20;99.90;;;;;;5059101;28;20099;-90
2021/07/08 01:18:05;;;;;;;3.97;2.67;;;20.10;99.90;;;;;;5058621;28;20119;-89
2021/07/08 01:20:33;;;;;;;5.97;3.30;;;20.00;99.90;;;;;;5058256;28;20534;-90
2021/07/08 01:22:59;;;;;;;4.10;2.83;;;20.00;99.90;;;;;;5058234;28;20025;-89
2021/07/08 01:25:37;;;;;;;2.83;2.63;;;20.00;99.90;;;;;;5058280;28;20024;-90
2021/07/08 01:28:06;;;;;;;4.72;2.65;;;20.00;99.90;;;;;;5058061;28;20020;-89
2021/07/08 01:30:32;;;;;;;4.80;2.97;;;20.00;99.90;;;;;;5058194;28;20025;-90
2021/07/08 01:32:59;;;;;;;5.78;3.47;;;19.90;99.90;;;;;;5058186;28;20024;-89
2021/07/08 01:35:25;;;;;;;4.25;2.88;;;19.90;99.90;;;;;;5058210;28;20092;-90
2021/07/08 01:37:51;;;;;;;3.70;3.00;;;19.90;99.90;;;;;;5058107;28;20023;-88
2021/07/08 01:40:18;;;;;;;4.65;3.40;;;19.80;99.90;;;;;;5057902;28;20115;-89
2021/07/08 01:42:44;;;;;;;3.83;3.53;;;19.80;99.90;;;;;;5057818;28;20020;-90
2021/07/08 01:45:13;;;;;;;4.55;3.40;;;19.80;99.90;;;;;;5057816;28;20091;-89
2021/07/08 01:47:38;;;;;;;3.83;3.40;;;19.80;99.90;;;;;;5057836;28;20468;-89
2021/07/08 01:50:06;;;;;;;3.60;3.25;;;19.80;99.90;;;;;;5057843;28;20028;-89
2021/07/08 01:52:33;;;;;;;6.03;4.47;;;19.80;99.90;;;;;;5057628;28;20032;-89
2021/07/08 01:54:58;;;;;;;4.78;4.30;;;19.70;99.90;;;;;;5057785;28;20027;-88
2021/07/08 01:57:24;;;;;;;6.22;4.63;;;19.70;99.90;;;;;;5058006;28;20021;-89
2021/07/08 01:59:50;;;;;;;5.00;4.50;;;19.70;99.90;;;;;;5057687;28;20043;-89
2021/07/08 02:02:16;;;;;;;4.57;3.83;;;19.60;99.90;;;;;;5057377;28;20016;-89
2021/07/08 02:04:42;;;;;;;4.72;4.05;;;19.60;99.90;;;;;;5057545;28;20080;-90
2021/07/08 02:07:08;;;;;;;5.10;4.60;;;19.50;99.90;;;;;;5057688;28;20028;-90
2021/07/08 02:09:33;;;;;;;6.55;4.55;;;19.40;99.90;;;;;;5058190;28;20095;-90
2021/07/08 02:12:00;;;;;;;5.95;4.07;;;19.50;99.90;;;;;;5057354;28;20025;-90
2021/07/08 02:14:27;;;;;;;7.78;4.88;;;19.50;99.90;;;;;;5057462;28;20147;-90
2021/07/08 02:16:53;;;;;;;5.43;4.60;;;19.50;99.90;;;;;;5057378;28;20119;-90
2021/07/08 02:19:19;;;;;;;6.75;4.30;;;19.50;99.90;;;;;;5057075;28;20040;-89
2021/07/08 02:21:45;;;;;;;6.32;4.72;;;19.40;99.90;;;;;;5057176;28;20440;-91
2021/07/08 02:24:11;;;;;;;6.18;4.93;;;19.40;99.90;;;;;;5057195;28;20077;-91
2021/07/08 02:26:36;;;;;;;5.22;4.72;;;19.40;99.90;;;;;;5057044;28;20027;-90
2021/07/08 02:29:02;;;;;;;5.15;4.65;;;19.40;99.90;;;;;;5057658;28;20039;-90
2021/07/08 02:31:28;;;;;;;6.80;5.28;;;19.40;99.90;;;;;;5056968;28;20028;-90
2021/07/08 02:33:54;;;;;;;5.55;5.05;;;19.40;99.90;;;;;;5057000;28;20032;-89
2021/07/08 02:36:19;;;;;;;6.68;5.50;;;19.30;99.90;;;;;;5057095;28;20044;-89
2021/07/08 02:38:45;;;;;;;5.30;4.80;;;19.30;99.90;;;;;;5056926;28;20036;-90
2021/07/08 02:41:11;;;;;;;6.85;4.45;;;19.30;99.90;;;;;;5056710;28;20020;-90
2021/07/08 02:43:37;;;;;;;6.38;4.95;;;19.30;99.90;;;;;;5056645;28;20082;-90
2021/07/08 02:46:03;;;;;;;7.68;4.60;;;19.30;99.90;;;;;;5056852;28;20020;-89
2021/07/08 02:48:28;;;;;;;5.50;4.90;;;19.20;99.90;;;;;;5056882;28;20063;-89
2021/07/08 02:50:55;;;;;;;7.30;5.05;;;19.20;99.90;;;;;;5056519;28;20024;-90
2021/07/08 02:53:22;;;;;;;5.13;4.38;;;19.10;99.90;;;;;;5056516;28;20108;-89
2021/07/08 02:55:49;;;;;;;7.55;4.53;;;19.10;99.90;;;;;;5056174;28;20123;-89
2021/07/08 02:58:15;;;;;;;5.40;4.90;;;19.10;99.90;;;;;;5056472;28;20573;-89
2021/07/08 03:00:41;;;;;;;7.43;5.30;;;19.00;99.90;;;;;;5056266;28;20075;-90
2021/07/08 03:03:07;;;;;;;5.68;5.07;;;19.10;99.90;;;;;;5056296;28;20021;-90
2021/07/08 03:05:33;;;;;;;6.95;5.07;;;19.10;99.90;;;;;;5056223;28;20024;-90
2021/07/08 03:07:59;;;;;;;5.95;5.28;;;19.10;99.90;;;;;;5056481;28;20113;-89
2021/07/08 03:10:27;;;;;;;7.35;5.82;;;19.00;99.90;;;;;;5056427;28;20507;-89
2021/07/08 03:12:53;;;;;;;8.82;5.93;;;19.00;99.90;;;;;;5056485;28;20414;-90
2021/07/08 03:15:20;;;;;;;6.18;5.68;;;18.90;99.90;;;;;;5056342;28;20051;-90
2021/07/08 03:17:46;;;;;;;8.18;6.22;;;19.00;99.90;;;;;;5056670;28;20028;-89
2021/07/08 03:20:15;;;;;;;8.70;5.55;;;18.90;99.90;;;;;;5056425;28;20036;-91
2021/07/08 03:22:42;;;;;;;10.30;6.38;;;18.90;99.90;;;;;;5056260;28;20027;-89
2021/07/08 03:25:09;;;;;;;7.53;6.30;;;18.90;99.90;;;;;;5056371;28;20032;-90
2021/07/08 03:27:35;;;;;;;7.30;6.40;;;18.90;99.90;;;;;;5056107;28;20016;-90
2021/07/08 03:30:04;;;;;;;9.73;6.63;;;19.00;99.90;;;;;;5056474;28;20033;-91
2021/07/08 03:32:30;;;;;;;8.85;6.07;;;19.00;99.90;;;;;;5056050;28;20031;-91
2021/07/08 03:34:55;;;;;;;7.90;5.85;;;18.90;99.90;;;;;;5056141;28;20028;-91
2021/07/08 03:37:21;;;;;;;8.98;5.93;;;18.90;99.90;;;;;;5056447;28;20069;-90
2021/07/08 03:39:47;;;;;;;7.82;6.55;;;18.90;99.90;;;;;;5057785;28;20488;-91
2021/07/08 03:42:12;;;;;;;6.75;5.88;;;19.00;99.90;;;;;;5057419;28;20021;-89
2021/07/08 03:44:38;;;;;;;7.38;6.18;;;19.10;99.90;;;;;;5058386;28;20096;-89
2021/07/08 03:47:04;;;;;;;9.18;5.90;;;19.10;99.90;;;;;;5058013;28;20361;-90
2021/07/08 03:49:29;;;;;;;8.35;5.63;;;19.10;99.90;;;;;;5057783;28;20020;-90
2021/07/08 03:51:55;;;;;;;9.30;6.65;;;19.20;99.90;;;;;;5057609;28;20025;-90
2021/07/08 03:54:21;;;;;;;10.82;6.30;;;19.20;99.90;;;;;;5057648;28;20024;-90
2021/07/08 03:56:46;;;;;;;8.65;6.60;;;19.30;99.90;;;;;;5057477;28;20021;-90
2021/07/08 03:59:12;;;;;;;7.50;6.55;;;19.20;99.90;;;;;;5058182;28;20510;-91
2021/07/08 04:01:39;;;;;;;7.22;6.38;;;19.30;99.90;;;;;;5055891;28;20111;-89
2021/07/08 04:04:05;;;;;;;8.68;6.60;;;19.40;99.90;;;;;;5055972;28;20029;-91
2021/07/08 04:06:31;;;;;;;8.27;6.45;;;19.40;99.90;;;;;;5056918;28;20028;-89
2021/07/08 04:08:56;;;;;;;10.80;6.18;;;19.40;99.90;;;;;;5059813;28;20032;-89
2021/07/08 04:11:22;;;;;;;8.40;6.38;;;19.40;99.90;;;;;;5059473;28;20357;-90
2021/07/08 04:13:48;;;;;;;6.47;5.80;;;19.40;99.90;;;;;;5059759;28;20059;-86
2021/07/08 04:16:14;;;;;;;7.30;4.88;;;20.10;99.90;;;;;;5060993;28;20154;-84
2021/07/08 04:18:39;;;;;;;5.78;4.90;;;20.70;99.90;;;;;;5063604;28;20029;-82
2021/07/08 04:21:05;;;;;;;8.18;6.82;;;21.30;99.90;;;;;;5062889;28;20031;-83
2021/07/08 04:23:31;;;;;;;8.70;6.60;;;21.70;99.90;;;;;;5060331;28;20070;-88
2021/07/08 04:25:57;;;;;;;7.55;6.75;;;21.50;99.90;;;;;;5063874;28;20028;-90
2021/07/08 04:28:23;;;;;;;10.23;6.25;;;21.50;99.90;;;;;;5061882;28;20029;-87
2021/07/08 04:30:50;;;;;;;7.53;6.05;;;21.60;99.90;;;;;;5059486;28;20070;-87
2021/07/08 04:33:17;;;;;;;10.45;6.57;;;21.80;99.90;;;;;;5059423;28;20021;-87
2021/07/08 04:35:43;;;;;;;9.55;8.13;;;21.80;99.90;;;;;;5059383;28;20032;-87
2021/07/08 04:38:10;;;;;;;9.65;7.07;;;21.60;99.90;;;;;;5059279;28;20024;-87
2021/07/08 04:40:38;;;;;;;7.03;6.32;;;21.30;99.90;;;;;;5058802;28;20159;-87
2021/07/08 04:43:07;;;;;;;18.23;16.17;;;21.10;99.90;;;;;;5059136;28;20020;-88
2021/07/08 04:45:33;;;;;;;10.13;7.93;;;21.00;99.90;;;;;;5058772;28;20028;-86
2021/07/08 04:47:59;;;;;;;8.07;7.28;;;21.10;99.90;;;;;;5059466;28;20123;-86
2021/07/08 04:50:25;;;;;;;12.05;7.18;;;21.20;99.90;;;;;;5058952;28;20025;-88
2021/07/08 04:52:52;;;;;;;8.75;7.38;;;21.30;99.90;;;;;;5058972;28;20044;-87
2021/07/08 04:55:21;;;;;;;9.57;7.18;;;21.50;99.90;;;;;;5059072;28;20020;-87
2021/07/08 04:57:47;;;;;;;11.18;9.10;;;21.60;99.90;;;;;;5058598;28;20028;-88
2021/07/08 05:00:18;;;;;;;9.45;8.02;;;21.60;99.90;;;;;;5058812;28;20492;-89
2021/07/08 05:02:44;;;;;;;10.00;8.38;;;21.50;99.90;;;;;;5058845;28;20017;-90
2021/07/08 05:05:11;;;;;;;12.73;8.18;;;21.50;99.90;;;;;;5059266;28;20028;-89
2021/07/08 05:07:37;;;;;;;14.27;10.43;;;21.60;99.90;;;;;;5058980;28;20021;-89
2021/07/08 05:10:06;;;;;;;12.85;9.20;;;21.70;99.90;;;;;;5058830;28;20033;-85
2021/07/08 05:12:32;;;;;;;15.95;12.43;;;21.80;99.90;;;;;;5058430;28;20029;-86
2021/07/08 05:14:58;;;;;;;13.45;9.35;;;21.90;99.90;;;;;;5058131;28;20514;-85
2021/07/08 05:17:24;;;;;;;11.18;8.23;;;22.10;99.90;;;;;;5057979;28;20024;-84
2021/07/08 05:19:50;;;;;;;10.18;8.98;;;22.20;99.90;;;;;;5058320;28;20035;-84
2021/07/08 05:22:19;;;;;;;17.35;7.38;;;22.30;99.90;;;;;;5058120;28;20024;-88
2021/07/08 05:24:45;;;;;;;11.27;8.45;;;22.30;99.90;;;;;;5057936;28;20029;-86
2021/07/08 05:27:17;;;;;;;12.45;9.38;;;22.40;99.90;;;;;;5058063;28;20024;-80
2021/07/08 05:29:47;;;;;;;11.88;8.27;;;22.50;99.90;;;;;;5058845;28;20108;-81
2021/07/08 05:32:13;;;;;;;9.60;8.50;;;22.70;99.90;;;;;;5058611;28;20093;-81
2021/07/08 05:34:39;;;;;;;9.35;8.43;;;22.80;99.90;;;;;;5058429;28;20066;-81
2021/07/08 05:37:05;;;;;;;8.82;7.75;;;23.00;99.90;;;;;;5058401;28;20017;-81
2021/07/08 05:39:31;;;;;;;11.10;8.68;;;23.20;99.90;;;;;;5058155;28;20036;-80
2021/07/08 05:41:56;;;;;;;8.45;7.65;;;23.20;99.90;;;;;;5057926;28;20024;-81
2021/07/08 05:44:22;;;;;;;9.48;8.48;;;23.40;99.90;;;;;;5057835;28;20119;-79
2021/07/08 05:46:48;;;;;;;9.27;7.60;;;23.60;99.90;;;;;;5057926;28;20372;-79
2021/07/08 05:49:13;;;;;;;12.88;7.72;;;23.80;99.90;;;;;;5057684;28;20110;-78
2021/07/08 05:51:39;;;;;;;7.38;6.68;;;23.90;99.90;;;;;;5075357;28;20028;-79
2021/07/08 05:54:05;;;;;;;9.88;6.30;;;24.10;99.90;;;;;;5057754;28;20032;-78
2021/07/08 05:56:30;;;;;;;9.98;6.47;;;24.30;99.90;;;;;;5057493;28;20037;-79
2021/07/08 05:58:56;;;;;;;7.95;6.75;;;24.40;99.90;;;;;;5057762;28;20033;-79
2021/07/08 06:01:22;;;;;;;7.45;6.75;;;24.70;99.90;;;;;;5057353;28;20396;-80
2021/07/08 06:03:48;;;;;;;7.32;6.38;;;24.80;99.90;;;;;;5057369;28;20020;-79
2021/07/08 06:06:17;;;;;;;10.20;7.30;;;25.00;99.90;;;;;;5057387;28;20017;-79
2021/07/08 06:08:44;;;;;;;7.20;5.72;;;25.00;99.90;;;;;;5057510;28;20082;-79
2021/07/08 06:11:09;;;;;;;7.00;5.95;;;25.20;99.90;;;;;;5057094;28;20051;-79
2021/07/08 06:13:36;;;;;;;7.03;6.32;;;25.20;99.90;;;;;;5057005;28;20076;-78
2021/07/08 06:16:02;;;;;;;6.03;5.25;;;25.30;99.90;;;;;;5056906;28;20464;-79
2021/07/08 06:18:28;;;;;;;6.05;5.38;;;25.50;99.90;;;;;;5057151;28;20036;-79
2021/07/08 06:20:53;;;;;;;5.75;4.82;;;25.70;99.90;;;;;;5056996;28;20392;-79
2021/07/08 06:23:20;;;;;;;7.22;4.22;;;26.00;98.90;;;;;;5057017;28;20025;-79
2021/07/08 06:25:47;;;;;;;10.05;4.75;;;26.10;97.70;;;;;;5057050;28;20028;-81
2021/07/08 06:28:12;;;;;;;8.32;4.68;;;26.30;97.70;;;;;;5056598;28;20031;-80
2021/07/08 06:30:38;;;;;;;5.80;3.92;;;26.50;97.40;;;;;;5056316;28;20025;-80
2021/07/08 06:33:04;;;;;;;7.78;3.90;;;26.60;96.70;;;;;;5074825;28;20529;-79
2021/07/08 06:35:29;;;;;;;9.85;4.25;;;26.70;96.10;;;;;;5056879;28;20025;-78
2021/07/08 06:37:55;;;;;;;4.35;3.70;;;26.70;96.10;;;;;;5056769;28;20036;-79
2021/07/08 06:40:21;;;;;;;3.85;3.30;;;26.90;95.70;;;;;;5056445;28;20032;-79
2021/07/08 06:42:47;;;;;;;4.00;3.35;;;27.00;94.40;;;;;;5056696;28;20479;-80
2021/07/08 06:45:15;;;;;;;5.13;3.58;;;26.90;94.90;;;;;;5056731;28;20039;-81
2021/07/08 06:48:23;;;;;;;3.42;3.13;;;26.90;95.50;;;;;;5056617;28;20021;-81
2021/07/08 06:50:34;;;;;;;4.93;3.28;;;27.00;94.70;;;;;;5063381;28;20032;-81
2021/07/08 06:53:01;;;;;;;5.18;3.20;;;27.20;95.80;;;;;;5056565;28;20024;-79
2021/07/08 06:55:27;;;;;;;4.90;3.55;;;27.40;94.50;;;;;;5056381;28;20024;-80
2021/07/08 06:57:53;;;;;;;4.78;3.40;;;27.40;94.10;;;;;;5056331;28;20033;-79
2021/07/08 07:00:24;;;;;;;6.70;3.50;;;27.50;93.20;;;;;;5056231;28;20144;-79
2021/07/08 07:02:50;;;;;;;7.00;3.75;;;27.50;93.90;;;;;;5056197;28;20491;-79
2021/07/08 07:05:16;;;;;;;3.80;3.50;;;27.50;93.30;;;;;;5055928;28;20028;-79
2021/07/08 07:07:42;;;;;;;4.50;3.83;;;27.70;93.00;;;;;;5056259;28;20032;-79
2021/07/08 07:10:08;;;;;;;4.57;4.05;;;27.90;93.20;;;;;;5073955;28;20065;-79
2021/07/08 07:12:38;;;;;;;6.60;3.65;;;28.00;93.30;;;;;;5056008;28;20368;-79
2021/07/08 07:15:05;;;;;;;4.55;4.15;;;28.20;92.90;;;;;;5052611;28;20503;-78
2021/07/08 07:17:33;;;;;;;4.78;4.38;;;28.20;92.80;;;;;;5052123;28;20639;-80
2021/07/08 07:19:58;;;;;;;5.40;4.47;;;28.40;93.30;;;;;;5052778;28;20083;-79
2021/07/08 07:22:24;;;;;;;19.73;4.90;;;28.60;91.10;;;;;;5053977;28;20013;-77
2021/07/08 07:24:52;;;;;;;4.13;3.65;;;28.60;90.00;;;;;;5052612;28;20090;-79
2021/07/08 07:27:18;;;;;;;4.72;3.72;;;28.70;88.90;;;;;;5051174;28;20025;-80
2021/07/08 07:29:43;;;;;;;4.97;3.60;;;28.70;90.10;;;;;;5051982;28;20035;-80
2021/07/08 07:32:09;;;;;;;5.15;3.50;;;28.80;91.20;;;;;;5051381;28;20472;-77
2021/07/08 07:34:35;;;;;;;5.50;3.60;;;28.80;90.90;;;;;;5051250;28;20357;-78
2021/07/08 07:37:00;;;;;;;9.00;3.30;;;29.00;89.00;;;;;;5052331;28;20460;-76
2021/07/08 07:39:26;;;;;;;4.65;3.08;;;29.20;89.00;;;;;;5052081;28;20535;-78
2021/07/08 07:41:52;;;;;;;7.00;3.20;;;29.30;85.30;;;;;;5054581;28;20403;-80
2021/07/08 07:44:17;;;;;;;5.82;3.13;;;29.40;86.20;;;;;;5055175;28;20082;-80
2021/07/08 07:46:43;;;;;;;4.53;3.00;;;29.30;84.20;;;;;;5056291;28;20022;-80
2021/07/08 07:49:10;;;;;;;4.72;2.67;;;29.10;81.30;;;;;;5055203;28;20021;-80
2021/07/08 07:51:37;;;;;;;3.60;2.72;;;29.40;81.70;;;;;;5054765;28;20017;-79
2021/07/08 07:54:02;;;;;;;8.50;3.30;;;29.60;77.80;;;;;;5054625;28;20036;-80
2021/07/08 07:56:28;;;;;;;6.20;3.10;;;29.70;79.70;;;;;;5056208;28;20021;-78
2021/07/08 07:58:54;;;;;;;4.18;2.75;;;29.70;78.70;;;;;;5055950;28;20442;-82
2021/07/08 08:01:20;;;;;;;5.00;3.33;;;29.70;78.20;;;;;;5054738;28;20028;-80
2021/07/08 08:03:46;;;;;;;6.07;3.25;;;29.70;78.60;;;;;;5054689;28;20503;-79
2021/07/08 08:08:55;;;;;;;6.38;3.28;;;30.00;77.50;;;;;;5056101;28;20537;-78
2021/07/08 08:11:21;;;;;;;3.97;2.92;;;30.00;78.10;;;;;;5054542;28;20021;-77
2021/07/08 08:13:47;;;;;;;3.72;2.80;;;30.10;79.10;;;;;;5054428;28;20095;-80
2021/07/08 08:16:13;;;;;;;3.65;2.92;;;30.10;79.00;;;;;;5054707;28;20503;-80
2021/07/08 08:18:39;;;;;;;4.15;2.72;;;30.10;77.50;;;;;;5055796;28;20067;-81
2021/07/08 08:21:04;;;;;;;6.93;3.17;;;30.00;79.00;;;;;;5054345;28;20460;-80
2021/07/08 08:23:30;;;;;;;8.38;3.50;;;30.10;78.50;;;;;;5054685;28;20108;-81
2021/07/08 08:25:56;;;;;;;3.45;3.10;;;30.20;79.80;;;;;;5055117;28;20047;-78
2021/07/08 08:28:23;;;;;;;7.88;3.40;;;30.20;78.00;;;;;;5053919;28;20451;-81
2021/07/08 08:30:49;;;;;;;3.72;2.92;;;30.20;79.40;;;;;;5053873;28;20476;-82
2021/07/08 08:33:15;;;;;;;7.15;3.28;;;30.20;79.80;;;;;;5055321;28;20047;-78
2021/07/08 08:35:41;;;;;;;4.38;3.17;;;30.10;79.50;;;;;;5053937;28;20040;-82
2021/07/08 08:38:07;;;;;;;6.53;3.17;;;30.10;79.30;;;;;;5055130;28;20368;-77
2021/07/08 08:40:32;;;;;;;4.72;3.10;;;30.20;76.80;;;;;;5054500;28;20056;-80
2021/07/08 08:42:58;;;;;;;4.30;3.08;;;30.30;77.20;;;;;;5055131;28;20025;-79
2021/07/08 08:45:24;;;;;;;4.43;2.83;;;30.30;75.50;;;;;;5054918;28;20482;-78
2021/07/08 08:47:57;;;;;;;3.42;2.90;;;30.40;77.30;;;;;;5055174;28;20079;-79
2021/07/08 08:50:24;;;;;;;3.58;2.70;;;30.50;77.30;;;;;;5054946;28;20061;-81
2021/07/08 08:52:50;;;;;;;4.35;2.72;;;30.50;76.60;;;;;;5053984;28;20021;-77
2021/07/08 08:55:16;;;;;;;5.78;2.90;;;30.40;76.30;;;;;;5054714;28;20461;-79
2021/07/08 08:57:45;;;;;;;5.80;3.30;;;30.60;75.90;;;;;;5054912;28;20029;-78
2021/07/08 09:00:23;;;;;;;3.15;2.72;;;30.60;76.40;;;;;;5054720;28;20033;-78
2021/07/08 09:03:03;;;;;;;5.47;2.80;;;30.50;75.80;;;;;;5054815;28;20021;-77
2021/07/08 09:05:30;;;;;;;4.28;3.13;;;30.60;75.00;;;;;;5054873;28;20040;-77
2021/07/08 09:08:16;;;;;;;7.25;3.03;;;30.60;73.10;;;;;;5054564;28;20028;-78
2021/07/08 09:11:01;;;;;;;4.95;2.90;;;30.60;77.20;;;;;;5054133;28;20052;-79
2021/07/08 09:13:28;;;;;;;3.13;2.83;;;30.80;74.70;;;;;;5054032;28;20037;-78
2021/07/08 09:15:53;;;;;;;6.53;3.15;;;31.10;74.30;;;;;;5054600;28;20021;-78
2021/07/08 09:18:25;;;;;;;3.42;3.10;;;31.10;72.40;;;;;;5054753;28;20032;-79
2021/07/08 09:20:51;;;;;;;5.32;3.03;;;31.20;74.90;;;;;;5054002;28;20033;-77
2021/07/08 09:23:18;;;;;;;4.53;2.83;;;31.30;72.80;;;;;;5055404;28;20074;-77
2021/07/08 09:25:45;;;;;;;3.33;2.75;;;31.30;72.50;;;;;;5053744;28;20025;-78
2021/07/08 09:28:23;;;;;;;8.77;3.10;;;31.20;73.80;;;;;;5053469;28;20486;-86
2021/07/08 09:31:06;;;;;;;4.07;3.08;;;31.30;73.50;;;;;;5053301;28;20440;-78
2021/07/08 09:33:37;;;;;;;4.95;3.10;;;31.40;73.00;;;;;;5054031;28;20022;-76
2021/07/08 09:36:16;;;;;;;5.25;3.05;;;31.60;71.40;;;;;;5052999;28;20439;-77
2021/07/08 09:38:47;;;;;;;6.40;2.80;;;31.70;71.10;;;;;;5053016;28;20033;-77
2021/07/08 09:41:22;;;;;;;5.13;3.15;;;31.50;70.30;;;;;;5052761;28;20147;-77
2021/07/08 09:43:48;;;;;;;3.88;3.00;;;31.50;71.70;;;;;;5053529;28;20021;-76
2021/07/08 09:46:15;;;;;;;8.50;2.90;;;31.50;71.20;;;;;;5052714;28;20032;-77
2021/07/08 09:49:03;;;;;;;6.13;2.75;;;31.70;73.40;;;;;;5052597;28;20086;-79
2021/07/08 09:51:30;;;;;;;3.75;2.97;;;31.80;71.50;;;;;;5054227;28;20028;-80
2021/07/08 09:54:05;;;;;;;6.93;2.97;;;31.90;69.90;;;;;;5054215;28;20040;-80
2021/07/08 09:56:45;;;;;;;8.32;3.08;;;32.00;71.20;;;;;;5054232;28;20029;-79
2021/07/08 09:59:16;;;;;;;3.80;3.00;;;32.20;71.80;;;;;;5053096;28;20385;-78
2021/07/08 10:01:43;;;;;;;4.38;3.03;;;32.20;70.10;;;;;;5052974;28;20021;-77
2021/07/08 10:04:09;;;;;;;4.95;2.90;;;32.10;70.00;;;;;;5054247;28;20793;-78
2021/07/08 10:06:36;;;;;;;8.65;2.88;;;32.10;69.20;;;;;;5054097;28;20021;-78
2021/07/08 10:09:04;;;;;;;6.20;3.10;;;32.00;70.30;;;;;;5052465;28;20484;-77
2021/07/08 10:11:30;;;;;;;4.03;3.10;;;32.00;70.00;;;;;;5052120;28;20029;-77
2021/07/08 10:13:59;;;;;;;7.85;3.13;;;31.90;71.70;;;;;;5052366;28;20055;-78
2021/07/08 10:16:27;;;;;;;4.68;3.10;;;32.00;73.40;;;;;;5053877;28;20487;-80
2021/07/08 10:18:57;;;;;;;8.20;3.38;;;32.00;70.60;;;;;;5053474;28;20175;-80
2021/07/08 10:21:29;;;;;;;7.40;3.28;;;32.20;70.20;;;;;;5053271;28;20021;-77
2021/07/08 10:24:00;;;;;;;5.90;2.90;;;32.30;71.30;;;;;;5053017;28;20029;-82
2021/07/08 10:26:27;;;;;;;8.85;3.30;;;32.20;70.10;;;;;;5053584;28;20029;-86
2021/07/08 10:28:55;;;;;;;6.85;3.20;;;32.10;69.40;;;;;;5053472;28;20013;-77
2021/07/08 10:31:23;;;;;;;7.90;3.47;;;32.20;70.80;;;;;;5051735;28;20024;-77
2021/07/08 10:34:09;;;;;;;4.05;3.28;;;32.10;70.90;;;;;;5051410;28;20085;-78
2021/07/08 10:36:35;;;;;;;3.47;3.13;;;32.10;71.50;;;;;;5053317;28;20357;-81
2021/07/08 10:39:14;;;;;;;4.38;3.53;;;32.10;71.50;;;;;;5054619;28;20464;-82
2021/07/08 10:41:41;;;;;;;4.80;3.70;;;32.40;70.40;;;;;;5053415;28;20029;-85
2021/07/08 10:44:33;;;;;;;4.78;3.60;;;32.40;70.70;;;;;;5053681;28;20123;-83
2021/07/08 10:47:00;;;;;;;3.60;3.20;;;32.30;69.80;;;;;;5053477;28;20047;-83
2021/07/08 10:49:38;;;;;;;25.80;4.07;;;32.40;69.10;;;;;;5053624;28;20025;-84
2021/07/08 10:52:10;;;;;;;6.55;4.47;;;32.60;72.60;;;;;;5054050;28;20095;-86
2021/07/08 10:54:37;;;;;;;10.10;4.07;;;32.60;70.20;;;;;;5053936;28;20029;-88
2021/07/08 10:57:04;;;;;;;4.95;3.42;;;32.70;69.70;;;;;;5053958;28;20084;-86
2021/07/08 10:59:38;;;;;;;5.93;4.15;;;32.80;69.10;;;;;;5056054;28;20083;-86
2021/07/08 11:02:04;;;;;;;5.15;4.30;;;32.70;68.90;;;;;;5054790;28;20025;-86
2021/07/08 11:04:48;;;;;;;8.50;4.00;;;32.50;69.70;;;;;;5055561;28;20029;-86
2021/07/08 11:07:18;;;;;;;8.90;4.72;;;32.40;71.00;;;;;;5055480;28;20024;-87
2021/07/08 11:10:05;;;;;;;6.43;4.20;;;32.60;70.70;;;;;;5055370;28;20045;-86
2021/07/08 11:12:36;;;;;;;4.07;3.70;;;32.80;70.30;;;;;;5054637;28;20029;-87
2021/07/08 11:15:04;;;;;;;6.07;4.63;;;32.80;70.00;;;;;;5053474;28;20152;-86
2021/07/08 11:17:42;;;;;;;5.95;4.20;;;33.00;68.20;;;;;;5053985;28;20029;-87
2021/07/08 11:20:26;;;;;;;5.30;4.82;;;33.10;67.90;;;;;;5054083;28;20033;-87
2021/07/08 11:22:51;;;;;;;6.97;4.55;;;32.90;66.80;;;;;;5052998;28;20422;-84
2021/07/08 11:25:17;;;;;;;5.38;4.90;;;33.00;67.80;;;;;;5052771;28;20021;-84
2021/07/08 11:27:45;;;;;;;5.63;4.55;;;33.10;66.00;;;;;;5052992;28;20021;-84
2021/07/08 11:30:14;;;;;;;5.60;5.20;;;33.10;64.90;;;;;;5052496;28;20032;-85
2021/07/08 11:32:57;;;;;;;7.13;5.00;;;33.10;65.90;;;;;;5052526;28;20086;-85
2021/07/08 11:35:38;;;;;;;12.43;5.40;;;33.10;66.30;;;;;;5053220;28;20025;-86
2021/07/08 11:38:04;;;;;;;7.50;5.57;;;33.20;65.30;;;;;;5052643;28;20090;-87
2021/07/08 11:40:38;;;;;;;16.42;5.53;;;33.20;66.10;;;;;;5052600;28;20119;-85
2021/07/08 11:43:21;;;;;;;6.57;5.10;;;33.10;66.30;;;;;;5052752;28;20036;-85
2021/07/08 11:45:50;;;;;;;6.57;5.10;;;33.10;66.20;;;;;;5052874;28;20079;-86
2021/07/08 11:48:30;;;;;;;7.93;5.25;;;33.10;65.50;;;;;;5052534;28;20025;-85
2021/07/08 11:50:56;;;;;;;5.85;5.18;;;33.00;65.70;;;;;;5052417;28;20170;-86
2021/07/08 11:53:22;;;;;;;6.20;4.60;;;32.90;65.80;;;;;;5052519;28;20025;-85
2021/07/08 11:55:50;;;;;;;6.28;5.63;;;33.10;65.90;;;;;;5052548;28;20025;-86
2021/07/08 11:58:22;;;;;;;6.00;5.10;;;33.30;65.90;;;;;;5052701;28;20182;-85
2021/07/08 12:00:49;;;;;;;6.32;4.80;;;33.40;67.60;;;;;;5053184;28;20475;-86
2021/07/08 12:03:36;;;;;;;6.20;4.80;;;33.50;65.10;;;;;;5052349;28;20020;-86
2021/07/08 12:06:07;;;;;;;6.28;4.88;;;33.60;66.60;;;;;;5052735;28;20029;-85
2021/07/08 12:08:37;;;;;;;5.20;4.80;;;33.30;66.70;;;;;;5052641;28;20025;-85
2021/07/08 12:11:12;;;;;;;5.18;4.72;;;33.20;68.70;;;;;;5052703;28;20024;-85
2021/07/08 12:13:44;;;;;;;;;;;33.50;68.00;;;;;;5052953;28;20033;-85
2021/07/08 12:16:10;;;;;;;6.25;5.20;;;33.60;66.70;;;;;;5052506;28;19968;-85
2021/07/08 12:18:43;;;;;;;5.75;5.25;;;33.60;64.70;;;;;;5052076;28;20068;-85
2021/07/08 12:21:24;;;;;;;6.38;4.85;;;33.70;66.40;;;;;;5051979;28;20025;-85
2021/07/08 12:23:51;;;;;;;6.97;5.38;;;33.90;64.60;;;;;;5052744;28;20112;-86
2021/07/08 12:26:32;;;;;;;8.13;5.47;;;34.00;62.90;;;;;;5052524;28;20052;-85
2021/07/08 12:29:18;;;;;;;8.90;5.97;;;34.10;63.70;;;;;;5056417;28;20361;-86
2021/07/08 12:32:04;;;;;;;7.18;5.13;;;34.10;62.50;;;;;;5056320;28;20121;-84
2021/07/08 12:34:49;;;;;;;8.23;5.30;;;34.20;64.30;;;;;;5056325;28;20031;-85
2021/07/08 12:37:20;;;;;;;;;;;34.10;65.20;;;;;;5056384;28;20405;-84
2021/07/08 12:40:06;;;;;;;6.50;5.57;;;34.00;64.80;;;;;;5055520;28;20283;-85
2021/07/08 12:42:46;;;;;;;8.20;6.05;;;33.90;65.40;;;;;;5055241;28;20025;-85
2021/07/08 12:45:14;;;;;;;9.70;5.60;;;33.90;64.70;;;;;;5055599;28;20070;-85
2021/07/08 12:47:42;;;;;;;7.80;5.30;;;34.00;64.50;;;;;;5055665;28;20123;-85
2021/07/08 12:50:09;;;;;;;5.90;5.40;;;33.90;61.80;;;;;;5055356;28;20017;-85
2021/07/08 12:52:37;;;;;;;7.93;5.28;;;34.10;61.50;;;;;;5055349;28;20021;-85
2021/07/08 12:55:05;;;;;;;6.95;6.13;;;34.10;60.00;;;;;;5056024;28;20021;-85